createdAt,value
2023-04-21T00:01:18.319Z,4.15
2023-04-21T00:02:41.444Z,4.70
2023-04-21T00:04:06.327Z,4.20
2023-04-21T00:05:30.001Z,3.65
2023-04-21T00:06:53.205Z,4.53
2023-04-21T00:08:17.243Z,5.07
2023-04-21T00:09:40.734Z,3.17
2023-04-21T00:11:04.285Z,3.88
2023-04-21T00:12:27.698Z,3.42
2023-04-21T00:13:51.145Z,3.30
2023-04-21T00:15:15.974Z,3.58
2023-04-21T00:16:38.485Z,4.53
2023-04-21T00:18:02.116Z,3.50
2023-04-21T00:19:24.592Z,4.38
2023-04-21T00:20:48.264Z,4.30
2023-04-21T00:22:14.950Z,4.25
2023-04-21T00:23:38.370Z,3.45
2023-04-21T00:25:01.733Z,5.05
2023-04-21T00:26:25.307Z,4.50
2023-04-21T00:27:47.748Z,4.20
2023-04-21T00:29:11.129Z,4.38
2023-04-21T00:30:35.329Z,3.92
2023-04-21T00:32:00.484Z,3.75
2023-04-21T00:33:23.942Z,5.30
2023-04-21T00:34:47.458Z,4.13
2023-04-21T00:36:09.953Z,4.22
2023-04-21T00:37:33.521Z,4.15
2023-04-21T00:38:57.074Z,4.05
2023-04-21T00:40:20.564Z,4.80
2023-04-21T00:41:43.769Z,4.90
2023-04-21T00:43:08.409Z,4.47
2023-04-21T00:44:31.795Z,4.03
2023-04-21T00:45:56.639Z,4.03
2023-04-21T00:47:19.071Z,3.70
2023-04-21T00:48:42.553Z,4.28
2023-04-21T00:50:05.872Z,4.35
2023-04-21T00:51:30.176Z,4.03
2023-04-21T00:52:53.870Z,4.65
2023-04-21T00:54:17.603Z,5.70
2023-04-21T00:55:41.085Z,3.97
2023-04-21T00:57:03.876Z,4.90
2023-04-21T00:58:27.288Z,4.05
2023-04-21T00:59:49.883Z,4.90
2023-04-21T01:01:15.179Z,3.72
2023-04-21T01:02:39.730Z,4.50
2023-04-21T01:04:04.061Z,4.25
2023-04-21T01:05:29.223Z,4.47
2023-04-21T01:06:52.891Z,3.95
2023-04-21T01:08:15.376Z,4.18
2023-04-21T01:09:38.760Z,4.05
2023-04-21T01:11:02.969Z,5.63
2023-04-21T01:12:25.387Z,3.65
2023-04-21T01:13:49.044Z,3.95
2023-04-21T01:15:12.476Z,4.53
2023-04-21T01:16:38.371Z,4.78
2023-04-21T01:18:02.115Z,6.20
2023-04-21T01:19:25.243Z,5.68
2023-04-21T01:20:49.957Z,5.25
2023-04-21T01:22:15.457Z,5.22
2023-04-21T01:23:38.974Z,4.78
2023-04-21T01:25:01.415Z,5.45
2023-04-21T01:26:25.046Z,5.35
2023-04-21T01:27:53.010Z,5.15
2023-04-21T01:29:16.921Z,5.32
2023-04-21T01:30:40.605Z,5.10
2023-04-21T01:32:06.959Z,5.78
2023-04-21T01:33:30.450Z,5.22
2023-04-21T01:34:53.167Z,6.22
2023-04-21T01:36:16.611Z,6.32
2023-04-21T01:37:41.398Z,5.90
2023-04-21T01:39:04.195Z,3.63
2023-04-21T01:40:27.745Z,5.15
2023-04-21T01:41:50.272Z,4.97
2023-04-21T01:43:13.765Z,5.90
2023-04-21T01:44:38.092Z,4.30
2023-04-21T01:46:00.615Z,5.53
2023-04-21T01:47:24.594Z,6.68
2023-04-21T01:48:47.033Z,5.25
2023-04-21T01:50:10.993Z,4.43
2023-04-21T01:51:33.394Z,5.43
2023-04-21T01:52:58.191Z,5.82
2023-04-21T01:54:20.710Z,3.83
2023-04-21T01:55:44.112Z,6.43
2023-04-21T01:57:06.997Z,5.25
2023-04-21T01:58:30.568Z,5.70
2023-04-21T01:59:52.995Z,6.10
2023-04-21T02:01:16.745Z,5.93
2023-04-21T02:02:40.312Z,5.93
2023-04-21T02:04:04.437Z,5.28
2023-04-21T02:05:27.006Z,6.15
2023-04-21T02:06:50.467Z,7.18
2023-04-21T02:08:15.239Z,8.32
2023-04-21T02:09:37.680Z,5.60
2023-04-21T02:11:03.218Z,8.10
2023-04-21T02:12:28.121Z,7.88
2023-04-21T02:13:51.533Z,9.70
2023-04-21T02:15:14.954Z,9.13
2023-04-21T02:16:37.476Z,8.75
2023-04-21T02:18:01.833Z,10.80
2023-04-21T02:19:24.320Z,11.00
2023-04-21T02:20:47.755Z,8.20
2023-04-21T02:22:12.764Z,10.93
2023-04-21T02:23:37.559Z,11.70
2023-04-21T02:25:00.964Z,5.45
2023-04-21T02:26:23.651Z,9.65
2023-04-21T02:27:47.108Z,9.48
2023-04-21T02:29:11.256Z,7.68
2023-04-21T02:30:35.881Z,7.95
2023-04-21T02:32:05.236Z,7.80
2023-04-21T02:33:34.095Z,5.85
2023-04-21T02:34:58.321Z,6.65
2023-04-21T02:36:21.788Z,6.10
2023-04-21T02:37:44.219Z,7.55
2023-04-21T02:39:08.995Z,7.18
2023-04-21T02:40:31.402Z,6.90
2023-04-21T02:41:54.821Z,6.78
2023-04-21T02:43:17.262Z,5.35
2023-04-21T02:44:40.646Z,6.63
2023-04-21T02:46:08.669Z,5.82
2023-04-21T02:47:32.207Z,4.30
2023-04-21T02:48:54.634Z,5.80
2023-04-21T02:50:18.012Z,4.43
2023-04-21T02:51:40.548Z,4.45
2023-04-21T02:53:03.959Z,6.40
2023-04-21T02:54:28.769Z,4.78
2023-04-21T02:55:51.189Z,2.17
2023-04-21T02:57:14.601Z,5.85
2023-04-21T02:58:38.216Z,4.05
2023-04-21T03:00:01.583Z,2.53
2023-04-21T03:01:25.019Z,5.88
2023-04-21T03:02:47.939Z,5.53
2023-04-21T03:04:11.494Z,3.58
2023-04-21T03:05:33.968Z,6.25
2023-04-21T03:06:57.722Z,5.50
2023-04-21T03:08:20.207Z,6.15
2023-04-21T03:09:44.965Z,6.55
2023-04-21T03:11:08.347Z,4.75
2023-04-21T03:12:31.734Z,5.90
2023-04-21T03:13:54.156Z,6.90
2023-04-21T03:15:17.715Z,4.90
2023-04-21T03:16:40.148Z,5.03
2023-04-21T03:18:03.618Z,6.35
2023-04-21T03:19:29.422Z,5.45
2023-04-21T03:20:53.011Z,4.60
2023-04-21T03:22:16.367Z,5.93
2023-04-21T03:23:38.783Z,5.78
2023-04-21T03:25:06.203Z,5.32
2023-04-21T03:26:29.617Z,6.38
2023-04-21T03:27:52.991Z,5.18
2023-04-21T03:29:16.348Z,6.95
2023-04-21T03:30:40.095Z,6.85
2023-04-21T03:32:02.519Z,5.07
2023-04-21T03:33:25.924Z,6.40
2023-04-21T03:34:50.114Z,6.72
2023-04-21T03:36:14.325Z,3.83
2023-04-21T03:37:36.734Z,6.03
2023-04-21T03:39:12.813Z,5.22
2023-04-21T03:40:44.319Z,6.45
2023-04-21T03:42:06.696Z,5.10
2023-04-21T03:43:30.067Z,5.38
2023-04-21T03:44:52.431Z,5.65
2023-04-21T03:46:22.404Z,5.97
2023-04-21T03:47:45.947Z,6.32
2023-04-21T03:49:08.366Z,6.07
2023-04-21T03:50:31.899Z,6.97
2023-04-21T03:51:54.323Z,5.97
2023-04-21T03:53:17.677Z,5.35
2023-04-21T03:54:41.044Z,6.22
2023-04-21T03:56:05.673Z,3.95
2023-04-21T03:57:29.192Z,3.65
2023-04-21T03:58:52.605Z,7.00
2023-04-21T04:00:15.389Z,6.50
2023-04-21T04:01:38.771Z,2.95
2023-04-21T04:03:01.254Z,7.45
2023-04-21T04:04:25.030Z,5.28
2023-04-21T04:05:48.680Z,6.93
2023-04-21T04:07:12.035Z,6.80
2023-04-21T04:08:35.420Z,7.13
2023-04-21T04:09:58.801Z,4.70
2023-04-21T04:11:23.931Z,7.85
2023-04-21T04:12:47.315Z,6.30
2023-04-21T04:14:09.714Z,6.15
2023-04-21T04:15:33.186Z,4.80
2023-04-21T04:16:56.554Z,6.43
2023-04-21T04:18:20.039Z,6.53
2023-04-21T04:19:43.417Z,6.53
2023-04-21T04:21:08.300Z,6.00
2023-04-21T04:22:30.736Z,6.93
2023-04-21T04:23:54.119Z,5.75
2023-04-21T04:25:17.732Z,6.05
2023-04-21T04:26:45.327Z,4.88
2023-04-21T04:28:07.769Z,7.47
2023-04-21T04:29:31.776Z,4.43
2023-04-21T04:30:55.294Z,6.72
2023-04-21T04:32:20.090Z,7.65
2023-04-21T04:33:42.723Z,6.05
2023-04-21T04:35:06.586Z,6.75
2023-04-21T04:36:30.869Z,7.28
2023-04-21T04:37:54.763Z,6.60
2023-04-21T04:39:18.511Z,6.70
2023-04-21T04:40:42.493Z,4.20
2023-04-21T04:42:10.100Z,6.18
2023-04-21T04:43:36.785Z,7.45
2023-04-21T04:45:01.695Z,7.13
2023-04-21T04:46:25.783Z,7.57
2023-04-21T04:47:49.542Z,4.90
2023-04-21T04:49:13.124Z,6.97
2023-04-21T04:50:36.581Z,5.55
2023-04-21T04:52:01.934Z,5.93
2023-04-21T04:53:25.761Z,7.90
2023-04-21T04:54:49.198Z,6.78
2023-04-21T04:56:12.658Z,6.25
2023-04-21T04:57:36.491Z,6.95
2023-04-21T04:58:59.887Z,6.53
2023-04-21T05:00:23.519Z,6.60
2023-04-21T05:01:46.020Z,5.80
2023-04-21T05:03:09.556Z,7.07
2023-04-21T05:04:34.854Z,7.40
2023-04-21T05:05:57.676Z,6.28
2023-04-21T05:07:21.095Z,6.97
2023-04-21T05:08:44.528Z,7.80
2023-04-21T05:10:07.733Z,6.07
2023-04-21T05:11:31.163Z,7.18
2023-04-21T05:12:55.886Z,6.65
2023-04-21T05:14:18.539Z,6.25
2023-04-21T05:15:42.186Z,8.02
2023-04-21T05:17:05.710Z,6.82
2023-04-21T05:18:29.660Z,7.10
2023-04-21T05:19:53.116Z,6.55
2023-04-21T05:21:23.147Z,6.85
2023-04-21T05:22:46.544Z,7.03
2023-04-21T05:24:10.103Z,6.72
2023-04-21T05:25:33.499Z,7.47
2023-04-21T05:26:56.877Z,5.65
2023-04-21T05:28:21.799Z,7.45
2023-04-21T05:29:44.250Z,6.63
2023-04-21T05:31:08.303Z,6.68
2023-04-21T05:32:31.813Z,6.47
2023-04-21T05:33:59.903Z,7.28
2023-04-21T05:35:23.388Z,7.30
2023-04-21T05:36:48.933Z,5.47
2023-04-21T05:38:12.295Z,6.82
2023-04-21T05:39:36.543Z,7.72
2023-04-21T05:40:58.937Z,6.80
2023-04-21T05:42:22.778Z,5.43
2023-04-21T05:43:47.689Z,7.03
2023-04-21T05:45:10.245Z,7.18
2023-04-21T05:46:34.770Z,6.05
2023-04-21T05:47:58.463Z,7.18
2023-04-21T05:49:25.322Z,7.28
2023-04-21T05:50:48.746Z,7.00
2023-04-21T05:52:12.148Z,6.38
2023-04-21T05:53:35.560Z,7.32
2023-04-21T05:55:00.478Z,7.10
2023-04-21T05:56:23.869Z,6.95
2023-04-21T05:57:47.289Z,6.82
2023-04-21T05:59:12.095Z,6.85
2023-04-21T06:00:35.839Z,6.43
2023-04-21T06:01:59.242Z,7.57
2023-04-21T06:03:22.889Z,7.30
2023-04-21T06:04:46.634Z,6.80
2023-04-21T06:06:11.470Z,7.00
2023-04-21T06:07:37.250Z,6.65
2023-04-21T06:08:59.671Z,7.40
2023-04-21T06:10:23.121Z,7.38
2023-04-21T06:11:46.552Z,6.55
2023-04-21T06:13:10.145Z,7.53
2023-04-21T06:14:41.865Z,6.97
2023-04-21T06:16:05.696Z,7.18
2023-04-21T06:17:29.308Z,7.68
2023-04-21T06:18:52.715Z,6.68
2023-04-21T06:20:17.698Z,6.28
2023-04-21T06:21:41.174Z,7.50
2023-04-21T06:23:04.705Z,6.45
2023-04-21T06:24:28.137Z,6.90
2023-04-21T06:26:01.586Z,7.22
2023-04-21T06:27:25.109Z,7.70
2023-04-21T06:28:47.531Z,6.93
2023-04-21T06:30:13.039Z,5.28
2023-04-21T06:31:36.576Z,7.07
2023-04-21T06:33:00.137Z,7.38
2023-04-21T06:34:23.713Z,6.20
2023-04-21T06:35:53.420Z,7.82
2023-04-21T06:37:17.039Z,7.13
2023-04-21T06:38:43.103Z,6.78
2023-04-21T06:40:09.125Z,6.60
2023-04-21T06:41:33.968Z,7.18
2023-04-21T06:42:57.384Z,7.32
2023-04-21T06:44:20.988Z,6.85
2023-04-21T06:45:45.851Z,6.95
2023-04-21T06:47:08.344Z,7.05
2023-04-21T06:48:31.905Z,7.32
2023-04-21T06:49:55.257Z,6.95
2023-04-21T06:51:18.596Z,7.50
2023-04-21T06:52:42.018Z,6.75
2023-04-21T06:54:05.814Z,7.70
2023-04-21T06:55:29.236Z,7.45
2023-04-21T06:56:52.653Z,7.47
2023-04-21T06:58:16.147Z,7.78
2023-04-21T06:59:38.651Z,7.53
2023-04-21T07:01:03.577Z,7.25
2023-04-21T07:02:26.134Z,7.07
2023-04-21T07:03:49.755Z,7.07
2023-04-21T07:05:13.221Z,7.68
2023-04-21T07:06:36.619Z,7.25
2023-04-21T07:08:00.460Z,7.15
2023-04-21T07:09:26.844Z,7.05
2023-04-21T07:10:50.218Z,7.00
2023-04-21T07:12:12.647Z,7.30
2023-04-21T07:13:36.018Z,7.13
2023-04-21T07:14:59.450Z,6.97
2023-04-21T07:16:24.509Z,7.00
2023-04-21T07:17:48.115Z,7.97
2023-04-21T07:19:11.554Z,6.43
2023-04-21T07:20:34.973Z,6.97
2023-04-21T07:21:58.344Z,6.75
2023-04-21T07:23:21.766Z,7.40
2023-04-21T07:24:44.286Z,7.75
2023-04-21T07:26:07.735Z,7.07
2023-04-21T07:27:31.153Z,7.20
2023-04-21T07:28:55.466Z,7.30
2023-04-21T07:30:18.851Z,6.45
2023-04-21T07:31:43.744Z,7.53
2023-04-21T07:33:07.236Z,6.72
2023-04-21T07:34:30.636Z,7.65
2023-04-21T07:35:54.031Z,6.93
2023-04-21T07:37:17.530Z,6.93
2023-04-21T07:38:43.238Z,7.28
2023-04-21T07:40:07.884Z,6.75
2023-04-21T07:41:31.317Z,8.10
2023-04-21T07:42:55.529Z,6.55
2023-04-21T07:44:18.947Z,6.80
2023-04-21T07:45:42.416Z,6.80
2023-04-21T07:47:07.287Z,6.95
2023-04-21T07:48:33.169Z,6.10
2023-04-21T07:49:56.572Z,7.22
2023-04-21T07:51:20.125Z,7.13
2023-04-21T07:52:43.508Z,6.93
2023-04-21T07:54:07.818Z,6.80
2023-04-21T07:55:31.326Z,6.80
2023-04-21T07:56:54.700Z,7.50
2023-04-21T07:58:18.106Z,7.15
2023-04-21T07:59:42.350Z,6.88
2023-04-21T08:01:06.437Z,6.93
2023-04-21T08:02:31.425Z,7.32
2023-04-21T08:03:55.076Z,6.95
2023-04-21T08:05:18.690Z,6.50
2023-04-21T08:06:42.498Z,7.35
2023-04-21T08:08:07.255Z,7.22
2023-04-21T08:09:30.673Z,8.02
2023-04-21T08:10:54.648Z,6.75
2023-04-21T08:12:18.054Z,6.45
2023-04-21T08:13:41.449Z,7.18
2023-04-21T08:15:07.678Z,6.75
2023-04-21T08:16:31.648Z,7.38
2023-04-21T08:17:56.601Z,7.32
2023-04-21T08:19:20.188Z,6.25
2023-04-21T08:20:44.099Z,6.85
2023-04-21T08:22:07.475Z,6.93
2023-04-21T08:23:32.455Z,6.85
2023-04-21T08:24:56.023Z,5.75
2023-04-21T08:26:21.720Z,6.68
2023-04-21T08:27:45.422Z,7.35
2023-04-21T08:29:10.580Z,6.55
2023-04-21T08:30:34.012Z,6.35
2023-04-21T08:31:57.453Z,7.05
2023-04-21T08:33:22.319Z,7.22
2023-04-21T08:34:45.772Z,6.78
2023-04-21T08:36:18.256Z,6.50
2023-04-21T08:37:46.276Z,6.05
2023-04-21T08:39:10.856Z,6.07
2023-04-21T08:40:35.848Z,6.43
2023-04-21T08:42:01.597Z,7.07
2023-04-21T08:43:25.009Z,6.47
2023-04-21T08:44:48.636Z,6.38
2023-04-21T08:46:14.795Z,6.45
2023-04-21T08:47:39.587Z,6.07
2023-04-21T08:49:04.636Z,6.28
2023-04-21T08:50:30.139Z,6.38
2023-04-21T08:51:53.577Z,6.82
2023-04-21T08:53:17.847Z,6.90
2023-04-21T08:54:42.419Z,6.72
2023-04-21T08:56:11.743Z,6.65
2023-04-21T08:57:35.422Z,6.30
2023-04-21T08:58:58.911Z,6.25
2023-04-21T09:00:22.729Z,5.90
2023-04-21T09:02:09.174Z,6.35
2023-04-21T09:03:32.819Z,6.55
2023-04-21T09:05:00.007Z,6.38
2023-04-21T09:06:23.866Z,6.47
2023-04-21T09:07:47.600Z,6.43
2023-04-21T09:09:11.402Z,6.68
2023-04-21T09:10:34.817Z,7.93
2023-04-21T09:11:58.534Z,6.70
2023-04-21T09:13:23.255Z,6.40
2023-04-21T09:14:47.085Z,6.20
2023-04-21T09:16:18.260Z,6.32
2023-04-21T09:17:41.790Z,6.07
2023-04-21T09:19:05.236Z,6.40
2023-04-21T09:20:30.013Z,6.00
2023-04-21T09:21:53.384Z,5.88
2023-04-21T09:23:16.849Z,7.13
2023-04-21T09:24:47.745Z,6.32
2023-04-21T09:26:11.890Z,6.18
2023-04-21T09:27:37.968Z,6.05
2023-04-21T09:29:01.836Z,6.85
2023-04-21T09:30:25.686Z,6.55
2023-04-21T09:31:49.438Z,6.40
2023-04-21T09:33:27.932Z,6.47
2023-04-21T09:34:54.380Z,5.38
2023-04-21T09:36:22.247Z,5.45
2023-04-21T09:37:45.922Z,6.47
2023-04-21T09:40:35.670Z,6.18
2023-04-21T09:41:59.735Z,6.38
2023-04-21T09:43:23.105Z,5.75
2023-04-21T09:44:52.437Z,6.43
2023-04-21T09:46:20.450Z,5.22
2023-04-21T09:47:45.270Z,5.45
2023-04-21T09:49:09.043Z,5.95
2023-04-21T09:51:11.450Z,5.90
2023-04-21T09:52:19.561Z,6.22
2023-04-21T09:53:43.986Z,6.50
2023-04-21T09:55:12.637Z,5.60
2023-04-21T09:56:39.137Z,5.70
2023-04-21T09:58:05.370Z,5.40
2023-04-21T09:59:31.705Z,5.97
2023-04-21T10:00:55.562Z,5.55
2023-04-21T10:02:21.103Z,5.72
2023-04-21T10:03:47.010Z,5.88
2023-04-21T10:05:13.858Z,5.80
2023-04-21T10:06:37.384Z,5.90
2023-04-21T10:08:02.174Z,5.80
2023-04-21T10:09:28.876Z,5.82
2023-04-21T10:10:53.706Z,5.95
2023-04-21T10:12:17.215Z,5.10
2023-04-21T10:13:41.456Z,5.90
2023-04-21T10:15:07.139Z,5.15
2023-04-21T10:16:30.924Z,5.63
2023-04-21T10:17:54.481Z,6.10
2023-04-21T10:19:28.362Z,6.13
2023-04-21T10:20:55.819Z,5.88
2023-04-21T10:22:29.575Z,4.80
2023-04-21T10:23:54.573Z,5.10
2023-04-21T10:25:18.085Z,5.50
2023-04-21T10:26:41.524Z,5.32
2023-04-21T10:28:08.187Z,5.47
2023-04-21T10:29:43.658Z,4.13
2023-04-21T10:31:20.202Z,4.20
2023-04-21T10:32:45.452Z,4.88
2023-04-21T10:34:15.278Z,5.30
2023-04-21T10:36:00.713Z,5.57
2023-04-21T10:37:24.083Z,5.20
2023-04-21T10:39:02.556Z,4.57
2023-04-21T10:40:44.395Z,5.07
2023-04-21T10:42:20.803Z,3.30
2023-04-21T10:43:47.497Z,5.38
2023-04-21T10:45:13.601Z,4.82
2023-04-21T10:46:37.497Z,4.85
2023-04-21T10:48:03.927Z,5.40
2023-04-21T10:49:28.905Z,6.03
2023-04-21T10:50:52.382Z,5.68
2023-04-21T10:52:16.376Z,5.43
2023-04-21T10:53:45.132Z,4.65
2023-04-21T10:55:12.636Z,5.70
2023-04-21T10:56:38.612Z,4.57
2023-04-21T10:58:04.629Z,4.78
2023-04-21T10:59:27.639Z,4.05
2023-04-21T11:00:56.180Z,4.50
2023-04-21T11:02:20.695Z,5.30
2023-04-21T11:03:44.590Z,5.55
2023-04-21T11:05:08.929Z,4.32
2023-04-21T11:06:32.735Z,5.03
2023-04-21T11:08:04.904Z,4.47
2023-04-21T11:09:28.329Z,3.65
2023-04-21T11:10:57.718Z,5.07
2023-04-21T11:12:20.233Z,5.30
2023-04-21T11:13:43.644Z,5.22
2023-04-21T11:15:10.422Z,5.00
2023-04-21T11:16:33.865Z,4.47
2023-04-21T11:17:57.357Z,2.88
2023-04-21T11:19:24.246Z,3.25
2023-04-21T11:20:47.723Z,4.57
2023-04-21T11:22:11.099Z,5.15
2023-04-21T11:23:34.552Z,4.68
2023-04-21T11:24:59.727Z,4.07
2023-04-21T11:26:35.300Z,3.63
2023-04-21T11:28:00.041Z,4.75
2023-04-21T11:29:23.920Z,5.30
2023-04-21T11:30:47.461Z,5.15
2023-04-21T11:32:11.173Z,5.38
2023-04-21T11:33:38.034Z,3.50
2023-04-21T11:35:01.932Z,2.45
2023-04-21T11:36:25.604Z,4.68
2023-04-21T11:37:52.521Z,5.30
2023-04-21T11:39:19.578Z,2.83
2023-04-21T11:40:48.931Z,5.05
2023-04-21T11:42:13.731Z,4.20
2023-04-21T11:43:37.674Z,2.35
2023-04-21T11:45:01.124Z,4.03
2023-04-21T11:46:26.253Z,2.72
2023-04-21T11:47:50.327Z,4.63
2023-04-21T11:49:16.925Z,5.40
2023-04-21T11:50:40.490Z,5.05
2023-04-21T11:52:06.275Z,4.88
2023-04-21T11:53:31.171Z,4.65
2023-04-21T11:55:01.267Z,4.88
2023-04-21T11:56:24.693Z,5.40
2023-04-21T11:57:49.478Z,4.78
2023-04-21T11:59:14.575Z,4.70
2023-04-21T12:00:37.977Z,5.57
2023-04-21T12:02:01.619Z,4.20
2023-04-21T12:03:25.479Z,4.32
2023-04-21T12:05:02.971Z,5.13
2023-04-21T12:06:28.686Z,4.82
2023-04-21T12:07:52.864Z,3.95
2023-04-21T12:09:20.360Z,3.97
2023-04-21T12:10:46.995Z,4.68
2023-04-21T12:12:11.774Z,4.22
2023-04-21T12:13:36.557Z,5.03
2023-04-21T12:15:01.686Z,4.60
2023-04-21T12:16:28.162Z,4.93
2023-04-21T12:17:52.964Z,4.95
2023-04-21T12:19:23.805Z,3.22
2023-04-21T12:20:51.497Z,3.90
2023-04-21T12:22:17.249Z,5.28
2023-04-21T12:23:42.309Z,4.22
2023-04-21T12:25:07.106Z,4.65
2023-04-21T12:26:30.780Z,3.38
2023-04-21T12:27:55.069Z,4.55
2023-04-21T12:29:20.939Z,3.90
2023-04-21T12:30:44.478Z,4.50
2023-04-21T12:32:08.590Z,4.00
2023-04-21T12:33:32.220Z,4.53
2023-04-21T12:34:56.119Z,5.22
2023-04-21T12:36:19.520Z,5.03
2023-04-21T12:37:43.009Z,3.70
2023-04-21T12:39:07.253Z,4.05
2023-04-21T12:40:30.735Z,4.15
2023-04-21T12:41:54.144Z,3.90
2023-04-21T12:43:17.562Z,3.70
2023-04-21T12:44:42.311Z,4.97
2023-04-21T12:46:06.080Z,5.05
2023-04-21T12:47:30.343Z,4.53
2023-04-21T12:48:53.809Z,4.35
2023-04-21T12:50:17.595Z,4.40
2023-04-21T12:51:41.128Z,4.72
2023-04-21T12:53:04.635Z,5.07
2023-04-21T12:54:28.070Z,5.00
2023-04-21T12:56:03.530Z,3.58
2023-04-21T12:57:29.398Z,3.90
2023-04-21T12:58:52.828Z,5.10
2023-04-21T13:00:18.081Z,4.63
2023-04-21T13:01:42.685Z,4.05
2023-04-21T13:03:06.634Z,3.80
2023-04-21T13:04:30.394Z,4.32
2023-04-21T13:05:54.212Z,4.45
2023-04-21T13:07:21.169Z,4.30
2023-04-21T13:08:44.651Z,3.72
2023-04-21T13:10:08.615Z,4.90
2023-04-21T13:11:32.018Z,3.95
2023-04-21T13:12:55.405Z,3.42
2023-04-21T13:14:17.926Z,4.13
2023-04-21T13:15:42.681Z,3.22
2023-04-21T13:17:06.221Z,3.85
2023-04-21T13:18:29.612Z,4.32
2023-04-21T13:19:53.279Z,4.00
2023-04-21T13:21:16.740Z,3.40
2023-04-21T13:22:40.231Z,4.40
2023-04-21T13:24:03.667Z,4.05
2023-04-21T13:25:27.172Z,4.20
2023-04-21T13:26:49.680Z,3.80
2023-04-21T13:28:13.870Z,4.28
2023-04-21T13:29:37.451Z,4.57
2023-04-21T13:31:04.966Z,4.63
2023-04-21T13:32:28.711Z,3.40
2023-04-21T13:33:53.804Z,3.53
2023-04-21T13:35:18.090Z,2.85
2023-04-21T13:36:42.597Z,3.83
2023-04-21T13:38:06.247Z,4.10
2023-04-21T13:39:29.879Z,3.65
2023-04-21T13:40:53.546Z,4.05
2023-04-21T13:42:17.132Z,3.95
2023-04-21T13:43:41.243Z,3.40
2023-04-21T13:45:05.398Z,4.38
2023-04-21T13:46:30.360Z,3.90
2023-04-21T13:47:52.949Z,3.72
2023-04-21T13:49:16.483Z,4.40
2023-04-21T13:50:39.966Z,2.92
2023-04-21T13:52:03.402Z,4.03
2023-04-21T13:53:26.937Z,3.08
2023-04-21T13:54:50.593Z,3.60
2023-04-21T13:56:14.359Z,4.00
2023-04-21T13:57:37.708Z,3.15
2023-04-21T13:59:10.816Z,1.92
2023-04-21T14:00:34.296Z,4.18
2023-04-21T14:01:59.156Z,3.50
2023-04-21T14:03:22.719Z,3.75
2023-04-21T14:04:46.530Z,3.33
2023-04-21T14:06:10.611Z,3.65
2023-04-21T14:07:35.717Z,3.47
2023-04-21T14:08:59.145Z,3.67
2023-04-21T14:10:22.815Z,2.88
2023-04-21T14:11:46.168Z,3.65
2023-04-21T14:13:12.775Z,3.60
2023-04-21T14:14:40.909Z,4.22
2023-04-21T14:16:04.738Z,3.70
2023-04-21T14:17:30.638Z,2.90
2023-04-21T14:18:54.149Z,4.18
2023-04-21T14:20:17.609Z,3.40
2023-04-21T14:21:41.013Z,3.88
2023-04-21T14:23:04.400Z,3.45
2023-04-21T14:24:29.990Z,4.00
2023-04-21T14:25:55.084Z,3.88
2023-04-21T14:27:18.697Z,3.63
2023-04-21T14:28:41.663Z,4.07
2023-04-21T14:30:05.844Z,4.15
2023-04-21T14:31:28.302Z,3.92
2023-04-21T14:32:53.161Z,3.90
2023-04-21T14:34:16.628Z,3.75
2023-04-21T14:35:40.092Z,4.05
2023-04-21T14:37:03.576Z,3.90
2023-04-21T14:38:27.648Z,3.33
2023-04-21T14:39:51.161Z,3.85
2023-04-21T14:41:14.577Z,4.15
2023-04-21T14:42:38.202Z,3.58
2023-04-21T14:44:03.301Z,3.90
2023-04-21T14:45:26.844Z,4.15
2023-04-21T14:47:00.751Z,3.33
2023-04-21T14:48:33.688Z,4.10
2023-04-21T14:49:57.155Z,3.55
2023-04-21T14:51:21.506Z,3.65
2023-04-21T14:52:45.146Z,3.92
2023-04-21T14:54:08.555Z,4.20
2023-04-21T14:55:32.153Z,3.75
2023-04-21T14:57:10.416Z,2.75
2023-04-21T14:58:40.506Z,4.13
2023-04-21T15:00:04.050Z,3.00
2023-04-21T15:01:27.576Z,3.33
2023-04-21T15:02:51.132Z,3.92
2023-04-21T15:04:15.316Z,3.72
2023-04-21T15:05:39.368Z,3.50
2023-04-21T15:07:03.770Z,3.15
2023-04-21T15:08:27.561Z,2.75
2023-04-21T15:09:51.020Z,3.25
2023-04-21T15:11:14.489Z,3.50
2023-04-21T15:12:38.673Z,3.70
2023-04-21T15:14:02.046Z,3.83
2023-04-21T15:15:25.569Z,3.80
2023-04-21T15:16:49.018Z,3.13
2023-04-21T15:18:12.486Z,3.17
2023-04-21T15:19:37.546Z,3.67
2023-04-21T15:21:01.138Z,4.40
2023-04-21T15:22:24.588Z,4.20
2023-04-21T15:23:47.984Z,3.35
2023-04-21T15:25:11.660Z,3.85
2023-04-21T15:26:35.152Z,3.78
2023-04-21T15:27:57.624Z,3.50
2023-04-21T15:29:21.123Z,3.85
2023-04-21T15:30:44.713Z,2.90
2023-04-21T15:32:08.128Z,4.00
2023-04-21T15:33:31.550Z,4.05
2023-04-21T15:34:56.331Z,4.15
2023-04-21T15:36:20.127Z,4.00
2023-04-21T15:37:43.537Z,3.78
2023-04-21T15:39:07.114Z,2.58
2023-04-21T15:40:30.860Z,3.17
2023-04-21T15:41:55.065Z,2.90
2023-04-21T15:43:18.556Z,3.92
2023-04-21T15:44:41.935Z,3.90
2023-04-21T15:46:15.336Z,3.17
2023-04-21T15:47:39.072Z,3.55
2023-04-21T15:49:02.621Z,3.78
2023-04-21T15:50:28.142Z,3.90
2023-04-21T15:51:52.455Z,3.20
2023-04-21T15:53:17.805Z,3.40
2023-04-21T15:54:42.790Z,3.00
2023-04-21T15:56:06.442Z,3.92
2023-04-21T15:57:30.741Z,2.83
2023-04-21T15:58:54.467Z,3.53
2023-04-21T16:00:18.380Z,2.13
2023-04-21T16:01:42.035Z,3.42
2023-04-21T16:03:06.637Z,3.47
2023-04-21T16:04:30.432Z,3.90
2023-04-21T16:05:55.550Z,3.70
2023-04-21T16:07:19.053Z,3.67
2023-04-21T16:08:43.128Z,3.30
2023-04-21T16:10:07.744Z,3.58
2023-04-21T16:11:31.163Z,3.90
2023-04-21T16:12:54.595Z,3.17
2023-04-21T16:14:18.059Z,3.70
2023-04-21T16:15:41.638Z,3.13
2023-04-21T16:17:05.220Z,3.92
2023-04-21T16:18:28.806Z,3.60
2023-04-21T16:19:51.391Z,3.35
2023-04-21T16:21:16.169Z,3.50
2023-04-21T16:22:39.585Z,3.30
2023-04-21T16:24:05.372Z,3.20
2023-04-21T16:25:29.372Z,3.72
2023-04-21T16:26:52.867Z,3.60
2023-04-21T16:28:16.259Z,4.00
2023-04-21T16:29:43.802Z,3.88
2023-04-21T16:31:10.949Z,3.78
2023-04-21T16:32:35.354Z,3.50
2023-04-21T16:33:59.915Z,3.13
2023-04-21T16:35:25.075Z,3.50
2023-04-21T16:36:49.850Z,2.70
2023-04-21T16:38:13.327Z,2.78
2023-04-21T16:39:38.380Z,4.10
2023-04-21T16:41:03.120Z,3.50
2023-04-21T16:42:26.664Z,2.60
2023-04-21T16:43:50.782Z,2.42
2023-04-21T16:45:14.207Z,3.83
2023-04-21T16:46:37.900Z,3.65
2023-04-21T16:48:01.732Z,2.83
2023-04-21T16:49:25.301Z,3.45
2023-04-21T16:50:48.747Z,3.53
2023-04-21T16:52:13.599Z,3.58
2023-04-21T16:53:40.365Z,3.20
2023-04-21T16:55:03.875Z,3.05
2023-04-21T16:56:27.379Z,3.20
2023-04-21T16:57:50.835Z,3.45
2023-04-21T16:59:15.735Z,3.03
2023-04-21T17:00:39.211Z,3.88
2023-04-21T17:02:02.831Z,4.03
2023-04-21T17:03:27.459Z,3.20
2023-04-21T17:04:51.829Z,3.40
2023-04-21T17:06:19.426Z,3.38
2023-04-21T17:07:44.977Z,3.17
2023-04-21T17:09:08.633Z,2.60
2023-04-21T17:10:32.872Z,3.20
2023-04-21T17:11:56.287Z,2.83
2023-04-21T17:13:19.667Z,3.72
2023-04-21T17:14:43.036Z,3.30
2023-04-21T17:16:09.113Z,3.25
2023-04-21T17:17:41.783Z,3.38
2023-04-21T17:19:05.211Z,3.33
2023-04-21T17:20:28.956Z,1.92
2023-04-21T17:21:52.326Z,3.40
2023-04-21T17:23:17.073Z,3.75
2023-04-21T17:24:52.409Z,3.03
2023-04-21T17:26:16.908Z,3.30
2023-04-21T17:27:41.610Z,3.22
2023-04-21T17:29:06.406Z,3.53
2023-04-21T17:30:29.758Z,3.15
2023-04-21T17:31:53.209Z,2.88
2023-04-21T17:33:17.757Z,3.10
2023-04-21T17:34:41.232Z,3.40
2023-04-21T17:36:04.956Z,3.35
2023-04-21T17:37:28.881Z,3.70
2023-04-21T17:38:53.812Z,3.60
2023-04-21T17:40:17.306Z,2.90
2023-04-21T17:41:41.919Z,3.63
2023-04-21T17:43:05.509Z,3.13
2023-04-21T17:44:29.927Z,3.13
2023-04-21T17:45:53.433Z,3.58
2023-04-21T17:47:16.865Z,2.85
2023-04-21T17:48:40.355Z,3.60
2023-04-21T17:50:04.214Z,3.65
2023-04-21T17:51:28.661Z,3.28
2023-04-21T17:52:52.111Z,3.10
2023-04-21T17:54:17.121Z,2.92
2023-04-21T17:55:41.308Z,2.80
2023-04-21T17:57:04.970Z,2.55
2023-04-21T17:58:28.430Z,3.92
2023-04-21T17:59:51.899Z,3.13
2023-04-21T18:01:18.563Z,3.65
2023-04-21T18:02:42.084Z,3.22
2023-04-21T18:04:05.713Z,3.55
2023-04-21T18:05:29.369Z,3.20
2023-04-21T18:06:55.671Z,3.30
2023-04-21T18:08:19.261Z,2.95
2023-04-21T18:09:48.664Z,3.20
2023-04-21T18:11:12.549Z,3.30
2023-04-21T18:12:36.585Z,3.00
2023-04-21T18:14:00.346Z,3.85
2023-04-21T18:15:23.755Z,4.00
2023-04-21T18:16:47.322Z,3.00
2023-04-21T18:18:11.148Z,3.75
2023-04-21T18:19:34.546Z,2.47
2023-04-21T18:20:59.607Z,2.67
2023-04-21T18:22:23.024Z,2.97
2023-04-21T18:23:46.520Z,3.10
2023-04-21T18:25:11.680Z,2.80
2023-04-21T18:26:35.203Z,3.78
2023-04-21T18:27:57.643Z,3.28
2023-04-21T18:29:21.312Z,3.25
2023-04-21T18:30:45.949Z,3.40
2023-04-21T18:32:09.519Z,3.25
2023-04-21T18:33:32.999Z,3.42
2023-04-21T18:34:56.575Z,3.63
2023-04-21T18:36:19.965Z,3.30
2023-04-21T18:37:43.425Z,3.83
2023-04-21T18:39:06.820Z,3.58
2023-04-21T18:40:33.134Z,3.25
2023-04-21T18:41:56.569Z,3.58
2023-04-21T18:43:20.007Z,3.50
2023-04-21T18:44:43.377Z,3.00
2023-04-21T18:46:07.060Z,3.50
2023-04-21T18:47:30.617Z,2.83